createdAt,value
2023-05-14T00:01:52.160Z,101208.63
2023-05-14T00:04:19.682Z,101214.88
2023-05-14T00:06:46.067Z,101209.53
2023-05-14T00:09:13.120Z,101209.50
2023-05-14T00:11:39.540Z,101208.63
2023-05-14T00:14:05.959Z,101203.28
2023-05-14T00:16:32.375Z,101208.59
2023-05-14T00:18:58.767Z,101212.16
2023-05-14T00:21:25.190Z,101197.06
2023-05-14T00:23:51.589Z,101213.06
2023-05-14T00:26:17.967Z,101210.41
2023-05-14T00:28:44.876Z,101205.09
2023-05-14T00:31:11.272Z,101212.19
2023-05-14T00:33:37.686Z,101205.09
2023-05-14T00:36:04.144Z,101196.16
2023-05-14T00:38:30.511Z,101196.13
2023-05-14T00:40:56.941Z,101181.00
2023-05-14T00:43:23.377Z,101192.56
2023-05-14T00:45:49.745Z,101186.38
2023-05-14T00:48:16.119Z,101176.53
2023-05-14T00:50:42.510Z,101171.19
2023-05-14T00:53:10.374Z,101185.41
2023-05-14T00:55:36.807Z,101172.91
2023-05-14T00:58:03.188Z,101181.91
2023-05-14T01:00:29.743Z,101174.78
2023-05-14T01:02:56.213Z,101171.22
2023-05-14T01:05:22.689Z,101176.56
2023-05-14T01:07:49.289Z,101171.19
2023-05-14T01:10:15.906Z,101164.00
2023-05-14T01:12:42.256Z,101169.31
2023-05-14T01:15:09.152Z,101170.31
2023-05-14T01:17:35.596Z,101174.78
2023-05-14T01:20:01.993Z,101172.03
2023-05-14T01:22:28.368Z,101175.66
2023-05-14T01:24:54.714Z,101177.31
2023-05-14T01:27:21.183Z,101171.19
2023-05-14T01:29:47.582Z,101167.63
2023-05-14T01:32:14.000Z,101164.91
2023-05-14T01:34:41.853Z,101164.06
2023-05-14T01:37:08.244Z,101167.63
2023-05-14T01:39:34.662Z,101160.53
2023-05-14T01:42:01.108Z,101156.97
2023-05-14T01:44:27.794Z,101162.31
2023-05-14T01:46:54.195Z,101163.19
2023-05-14T01:49:20.756Z,101165.88
2023-05-14T01:51:47.156Z,101164.97
2023-05-14T01:54:13.515Z,101165.88
2023-05-14T01:56:39.954Z,101172.75
2023-05-14T01:59:06.312Z,101166.56
2023-05-14T02:01:33.884Z,101162.97
2023-05-14T02:04:01.153Z,101153.31
2023-05-14T02:06:27.606Z,101156.78
2023-05-14T02:08:55.833Z,101149.75
2023-05-14T02:11:22.337Z,101149.81
2023-05-14T02:13:48.745Z,101143.56
2023-05-14T02:16:15.213Z,101146.22
2023-05-14T02:18:41.748Z,101144.44
2023-05-14T02:21:08.166Z,101145.34
2023-05-14T02:23:41.619Z,101145.25
2023-05-14T02:26:09.966Z,101139.88
2023-05-14T02:28:37.159Z,101143.44
2023-05-14T02:31:03.622Z,101148.66
2023-05-14T02:33:30.537Z,101150.22
2023-05-14T02:35:56.974Z,101145.84
2023-05-14T02:38:23.335Z,101147.38
2023-05-14T02:40:49.690Z,101137.59
2023-05-14T02:43:16.079Z,101146.47
2023-05-14T02:45:42.877Z,101142.91
2023-05-14T02:48:09.365Z,101142.06
2023-05-14T02:50:35.725Z,101143.00
2023-05-14T02:53:02.177Z,101154.47
2023-05-14T02:55:28.570Z,101150.81
2023-05-14T02:57:55.005Z,101146.13
2023-05-14T03:00:21.776Z,101153.22
2023-05-14T03:02:48.724Z,101149.66
2023-05-14T03:05:15.504Z,101156.03
2023-05-14T03:07:41.877Z,101150.03
2023-05-14T03:10:08.302Z,101146.56
2023-05-14T03:12:34.763Z,101153.38
2023-05-14T03:15:01.211Z,101145.38
2023-05-14T03:17:27.578Z,101150.03
2023-05-14T03:19:53.976Z,101152.59
2023-05-14T03:22:20.417Z,101144.38
2023-05-14T03:24:47.418Z,101144.53
2023-05-14T03:27:13.766Z,101150.03
2023-05-14T03:29:40.137Z,101151.84
2023-05-14T03:32:06.525Z,101144.75
2023-05-14T03:34:32.880Z,101144.53
2023-05-14T03:36:59.230Z,101143.75
2023-05-14T03:39:25.607Z,101141.84
2023-05-14T03:41:52.065Z,101140.25
2023-05-14T03:44:18.537Z,101140.25
2023-05-14T03:46:44.959Z,101131.28
2023-05-14T03:49:11.432Z,101130.00
2023-05-14T03:51:37.925Z,101135.28
2023-05-14T03:54:05.658Z,101135.53
2023-05-14T03:56:32.487Z,101123.31
2023-05-14T03:58:58.885Z,101125.91
2023-05-14T04:01:25.469Z,101123.31
2023-05-14T04:03:52.158Z,101124.94
2023-05-14T04:06:18.766Z,101119.66
2023-05-14T04:08:45.205Z,101124.91
2023-05-14T04:11:11.568Z,101119.22
2023-05-14T04:13:37.930Z,101135.22
2023-05-14T04:16:04.345Z,101120.25
2023-05-14T04:18:34.886Z,101122.00
2023-05-14T04:21:01.759Z,101130.78
2023-05-14T04:23:28.119Z,101133.53
2023-05-14T04:25:54.529Z,101124.63
2023-05-14T04:28:21.156Z,101116.66
2023-05-14T04:30:47.498Z,101114.03
2023-05-14T04:33:13.862Z,101123.03
2023-05-14T04:35:40.210Z,101115.91
2023-05-14T04:38:06.572Z,101113.09
2023-05-14T04:40:33.005Z,101118.50
2023-05-14T04:42:59.334Z,101117.53
2023-05-14T04:45:26.501Z,101113.06
2023-05-14T04:47:52.965Z,101117.44
2023-05-14T04:50:19.377Z,101119.38
2023-05-14T04:52:45.820Z,101113.19
2023-05-14T04:55:12.183Z,101122.88
2023-05-14T04:57:38.766Z,101130.53
2023-05-14T05:00:09.646Z,101114.97
2023-05-14T05:02:36.138Z,101126.25
2023-05-14T05:05:02.647Z,101129.44
2023-05-14T05:07:28.972Z,101133.47
2023-05-14T05:09:55.366Z,101133.31
2023-05-14T05:12:21.715Z,101134.09
2023-05-14T05:14:48.036Z,101121.81
2023-05-14T05:17:14.403Z,101122.09
2023-05-14T05:19:44.220Z,101121.31
2023-05-14T05:22:11.059Z,101123.13
2023-05-14T05:24:37.592Z,101121.34
2023-05-14T05:27:05.389Z,101130.28
2023-05-14T05:29:32.062Z,101130.25
2023-05-14T05:31:58.453Z,101129.38
2023-05-14T05:34:24.825Z,101130.25
2023-05-14T05:36:51.584Z,101122.25
2023-05-14T05:39:17.938Z,101120.50
2023-05-14T05:41:44.403Z,101132.94
2023-05-14T05:44:10.736Z,101122.25
2023-05-14T05:46:37.528Z,101118.72
2023-05-14T05:49:03.907Z,101122.25
2023-05-14T05:51:30.291Z,101123.16
2023-05-14T05:53:56.644Z,101122.16
2023-05-14T05:56:22.999Z,101119.47
2023-05-14T05:58:51.174Z,101123.06
2023-05-14T06:01:17.534Z,101132.06
2023-05-14T06:03:44.849Z,101124.00
2023-05-14T06:06:12.848Z,101123.13
2023-05-14T06:08:42.132Z,101125.72
2023-05-14T06:11:11.714Z,101126.63
2023-05-14T06:13:38.265Z,101130.16
2023-05-14T06:16:04.829Z,101126.69
2023-05-14T06:18:31.244Z,101126.63
2023-05-14T06:20:57.883Z,101136.47
2023-05-14T06:23:24.341Z,101137.38
2023-05-14T06:25:53.755Z,101141.75
2023-05-14T06:28:20.186Z,101142.56
2023-05-14T06:30:46.709Z,101145.19
2023-05-14T06:33:13.801Z,101140.63
2023-05-14T06:35:40.392Z,101142.38
2023-05-14T06:38:06.795Z,101141.44
2023-05-14T06:40:33.564Z,101144.03
2023-05-14T06:43:00.038Z,101149.25
2023-05-14T06:45:26.539Z,101140.56
2023-05-14T06:47:53.130Z,101143.22
2023-05-14T06:50:20.069Z,101137.75
2023-05-14T06:52:46.935Z,101135.03
2023-05-14T06:55:13.324Z,101133.31
2023-05-14T06:57:40.820Z,101127.06
2023-05-14T07:00:08.183Z,101130.38
2023-05-14T07:02:34.724Z,101128.41
2023-05-14T07:05:02.085Z,101130.03
2023-05-14T07:07:28.668Z,101123.56
2023-05-14T07:09:55.085Z,101129.28
2023-05-14T07:12:21.476Z,101128.06
2023-05-14T07:14:47.837Z,101135.94
2023-05-14T07:17:14.338Z,101132.84
2023-05-14T07:19:40.952Z,101123.41
2023-05-14T07:22:07.378Z,101130.88
2023-05-14T07:24:33.744Z,101128.59
2023-05-14T07:27:02.639Z,101126.25
2023-05-14T07:29:30.419Z,101123.91
2023-05-14T07:31:57.040Z,101126.06
2023-05-14T07:34:23.505Z,101117.75
2023-05-14T07:36:50.289Z,101117.72
2023-05-14T07:39:16.891Z,101123.41
2023-05-14T07:41:43.428Z,101120.13
2023-05-14T07:44:10.040Z,101117.31
2023-05-14T07:46:38.025Z,101126.06
2023-05-14T07:49:04.663Z,101119.78
2023-05-14T07:51:34.488Z,101117.25
2023-05-14T07:54:01.161Z,101109.94
2023-05-14T07:56:27.760Z,101111.78
2023-05-14T07:58:54.186Z,101112.53
2023-05-14T08:01:20.920Z,101113.75
2023-05-14T08:03:47.778Z,101115.38
2023-05-14T08:06:14.950Z,101115.06
2023-05-14T08:08:41.353Z,101111.41
2023-05-14T08:11:07.942Z,101106.69
2023-05-14T08:13:34.401Z,101110.84
2023-05-14T08:16:00.813Z,101111.94
2023-05-14T08:18:27.491Z,101105.59
2023-05-14T08:20:53.980Z,101108.13
2023-05-14T08:23:20.784Z,101110.41
2023-05-14T08:25:47.322Z,101106.34
2023-05-14T08:28:13.689Z,101109.47
2023-05-14T08:30:40.235Z,101114.56
2023-05-14T08:33:09.231Z,101115.88
2023-05-14T08:35:35.703Z,101108.50
2023-05-14T08:38:02.590Z,101106.31
2023-05-14T08:40:29.029Z,101098.78
2023-05-14T08:42:55.489Z,101097.50
2023-05-14T08:45:22.034Z,101099.44
2023-05-14T08:47:49.766Z,101094.38
2023-05-14T08:50:22.764Z,101086.31
2023-05-14T08:52:49.871Z,101090.53
2023-05-14T08:55:16.270Z,101089.44
2023-05-14T08:57:42.845Z,101083.41
2023-05-14T09:00:13.111Z,101081.53
2023-05-14T09:02:39.705Z,101085.81
2023-05-14T09:05:08.992Z,101082.88
2023-05-14T09:07:35.487Z,101077.63
2023-05-14T09:10:02.502Z,101080.09
2023-05-14T09:12:28.870Z,101076.78
2023-05-14T09:14:55.288Z,101079.06
2023-05-14T09:17:24.838Z,101080.84
2023-05-14T09:19:53.133Z,101080.19
2023-05-14T09:22:20.050Z,101075.47
2023-05-14T09:24:46.586Z,101069.25
2023-05-14T09:27:13.033Z,101065.25
2023-05-14T09:29:41.906Z,101059.28
2023-05-14T09:32:10.267Z,101066.69
2023-05-14T09:34:39.758Z,101055.69
2023-05-14T09:37:06.204Z,101063.38
2023-05-14T09:39:32.590Z,101062.63
2023-05-14T09:41:59.130Z,101055.56
2023-05-14T09:44:25.841Z,101056.63
2023-05-14T09:46:52.286Z,101054.34
2023-05-14T09:49:18.783Z,101050.28
2023-05-14T09:51:45.396Z,101052.13
2023-05-14T09:54:11.899Z,101052.84
2023-05-14T09:56:39.881Z,101042.09
2023-05-14T09:59:06.371Z,101045.97
2023-05-14T10:01:33.067Z,101050.63
2023-05-14T10:03:59.770Z,101045.69
2023-05-14T10:06:26.384Z,101031.97
2023-05-14T10:08:52.809Z,101038.41
2023-05-14T10:11:21.152Z,101046.66
2023-05-14T10:13:47.547Z,101047.59
2023-05-14T10:16:14.384Z,101037.03
2023-05-14T10:18:41.134Z,101034.13
2023-05-14T10:21:07.550Z,101036.97
2023-05-14T10:23:34.057Z,101041.75
2023-05-14T10:26:00.599Z,101024.84
2023-05-14T10:28:27.103Z,101032.69
2023-05-14T10:30:53.530Z,101030.94
2023-05-14T10:33:19.980Z,101025.59
2023-05-14T10:35:46.385Z,101022.19
2023-05-14T10:38:12.753Z,101033.16
2023-05-14T10:40:39.188Z,101025.69
2023-05-14T10:43:05.934Z,101025.28
2023-05-14T10:45:34.332Z,101030.28
2023-05-14T10:48:00.957Z,101018.91
2023-05-14T10:50:27.445Z,101008.72
2023-05-14T10:52:55.278Z,101016.34
2023-05-14T10:55:21.675Z,101012.97
2023-05-14T10:57:48.148Z,101011.16
2023-05-14T11:00:14.767Z,101003.34
2023-05-14T11:02:41.346Z,101010.94
2023-05-14T11:05:11.571Z,101003.44
2023-05-14T11:07:38.112Z,101009.25
2023-05-14T11:10:04.538Z,100998.34
2023-05-14T11:12:31.158Z,100986.88
2023-05-14T11:14:58.118Z,100994.88
2023-05-14T11:17:24.940Z,100990.25
2023-05-14T11:19:51.447Z,100986.75
2023-05-14T11:22:18.425Z,100986.03
2023-05-14T11:24:44.956Z,100996.19
2023-05-14T11:27:11.355Z,100976.44
2023-05-14T11:29:37.889Z,100982.94
2023-05-14T11:32:04.455Z,100967.91
2023-05-14T11:34:31.244Z,100965.63
2023-05-14T11:36:57.674Z,100966.53
2023-05-14T11:39:24.087Z,100970.28
2023-05-14T11:41:50.475Z,100966.69
2023-05-14T11:44:16.877Z,100966.44
2023-05-14T11:46:43.303Z,100964.94
2023-05-14T11:49:09.795Z,100978.84
2023-05-14T11:51:36.445Z,100969.44
2023-05-14T11:54:04.017Z,100958.66
2023-05-14T11:56:30.544Z,100955.69
2023-05-14T11:58:57.537Z,100955.38
2023-05-14T12:01:24.118Z,100951.59
2023-05-14T12:03:50.789Z,100948.53
2023-05-14T12:06:17.177Z,100945.13
2023-05-14T12:08:43.677Z,100940.69
2023-05-14T12:11:10.176Z,100943.94
2023-05-14T12:13:36.752Z,100943.03
2023-05-14T12:16:03.508Z,100944.97
2023-05-14T12:18:30.265Z,100949.81
2023-05-14T12:20:56.953Z,100943.53
2023-05-14T12:23:23.412Z,100934.28
2023-05-14T12:25:49.824Z,100934.25
2023-05-14T12:28:16.530Z,100927.41
2023-05-14T12:30:43.071Z,100919.31
2023-05-14T12:33:09.980Z,100919.22
2023-05-14T12:35:37.000Z,100916.84
2023-05-14T12:38:03.589Z,100926.97
2023-05-14T12:40:30.264Z,100917.84
2023-05-14T12:42:56.961Z,100924.00
2023-05-14T12:45:23.640Z,100916.31
2023-05-14T12:47:51.283Z,100916.34
2023-05-14T12:50:17.806Z,100907.69
2023-05-14T12:52:44.503Z,100911.09
2023-05-14T12:55:10.937Z,100913.69
2023-05-14T12:57:38.438Z,100912.09
2023-05-14T13:00:07.110Z,100908.25
2023-05-14T13:02:33.650Z,100893.06
2023-05-14T13:05:09.869Z,100890.22
2023-05-14T13:07:36.408Z,100903.19
2023-05-14T13:10:05.508Z,100908.72
2023-05-14T13:12:32.449Z,100898.91
2023-05-14T13:14:58.868Z,100896.41
2023-05-14T13:17:25.343Z,100892.81
2023-05-14T13:19:51.780Z,100895.47
2023-05-14T13:22:18.890Z,100892.38
2023-05-14T13:24:45.741Z,100883.72
2023-05-14T13:27:12.117Z,100885.63
2023-05-14T13:29:38.577Z,100879.94
2023-05-14T13:32:05.110Z,100875.13
2023-05-14T13:34:31.669Z,100889.47
2023-05-14T13:36:58.042Z,100880.78
2023-05-14T13:39:27.217Z,100872.94
2023-05-14T13:41:53.985Z,100878.78
2023-05-14T13:44:20.689Z,100875.16
2023-05-14T13:46:47.128Z,100871.94
2023-05-14T13:49:13.602Z,100863.69
2023-05-14T13:51:40.132Z,100859.69
2023-05-14T13:54:06.860Z,100853.97
2023-05-14T13:56:34.174Z,100858.75
2023-05-14T13:59:00.677Z,100850.97
2023-05-14T14:01:27.260Z,100856.94
2023-05-14T14:03:53.800Z,100863.03
2023-05-14T14:06:20.243Z,100849.91
2023-05-14T14:08:46.736Z,100865.75
2023-05-14T14:11:13.720Z,100850.69
2023-05-14T14:13:40.161Z,100857.34
2023-05-14T14:16:06.545Z,100857.38
2023-05-14T14:18:32.975Z,100846.97
2023-05-14T14:20:59.408Z,100837.78
2023-05-14T14:23:25.791Z,100831.34
2023-05-14T14:25:52.170Z,100834.22
2023-05-14T14:28:19.008Z,100820.47
2023-05-14T14:30:45.554Z,100830.09
2023-05-14T14:33:11.979Z,100829.84
2023-05-14T14:35:38.566Z,100833.28
2023-05-14T14:38:04.920Z,100836.44
2023-05-14T14:40:32.617Z,100822.63
2023-05-14T14:42:59.185Z,100830.13
2023-05-14T14:45:25.652Z,100812.28
2023-05-14T14:47:52.484Z,100812.50
2023-05-14T14:50:18.890Z,100816.63
2023-05-14T14:52:47.840Z,100812.03
2023-05-14T14:55:14.196Z,100815.59
2023-05-14T14:57:40.666Z,100813.00
2023-05-14T15:00:07.286Z,100818.66
2023-05-14T15:02:34.123Z,100816.22
2023-05-14T15:05:00.762Z,100818.41
2023-05-14T15:07:27.201Z,100808.16
2023-05-14T15:09:53.779Z,100810.81
2023-05-14T15:12:20.120Z,100822.06
2023-05-14T15:14:46.512Z,100835.53
2023-05-14T15:17:13.030Z,100847.47
2023-05-14T15:19:39.515Z,100814.38
2023-05-14T15:22:05.872Z,100821.59
2023-05-14T15:24:32.256Z,100806.50
2023-05-14T15:26:58.606Z,100802.13
2023-05-14T15:29:25.024Z,100810.50
2023-05-14T15:31:51.424Z,100805.50
2023-05-14T15:34:17.853Z,100814.56
2023-05-14T15:36:44.223Z,100808.63
2023-05-14T15:39:10.580Z,100816.44
2023-05-14T15:41:37.044Z,100800.63
2023-05-14T15:44:03.441Z,100804.16
2023-05-14T15:46:30.523Z,100802.94
2023-05-14T15:48:56.977Z,100797.59
2023-05-14T15:51:23.343Z,100798.03
2023-05-14T15:53:49.708Z,100796.00
2023-05-14T15:56:16.585Z,100792.03
2023-05-14T15:58:43.110Z,100785.78
2023-05-14T16:01:09.484Z,100795.63
2023-05-14T16:03:35.940Z,100796.19
2023-05-14T16:06:02.436Z,100788.88
2023-05-14T16:08:28.863Z,100797.53
2023-05-14T16:10:55.214Z,100793.03
2023-05-14T16:13:21.646Z,100799.31
2023-05-14T16:15:48.223Z,100816.38
2023-05-14T16:18:14.579Z,100807.88
2023-05-14T16:20:41.548Z,100808.50
2023-05-14T16:23:07.917Z,100794.00
2023-05-14T16:25:34.690Z,100808.34
2023-05-14T16:28:01.024Z,100800.22
2023-05-14T16:30:27.369Z,100799.28
2023-05-14T16:32:53.899Z,100804.63
2023-05-14T16:35:20.675Z,100803.72
2023-05-14T16:37:47.069Z,100797.94
2023-05-14T16:40:13.491Z,100798.19
2023-05-14T16:42:39.879Z,100784.03
2023-05-14T16:45:06.309Z,100795.81
2023-05-14T16:47:32.704Z,100785.78
2023-05-14T16:49:59.090Z,100779.28
2023-05-14T16:52:25.426Z,100795.78
2023-05-14T16:54:51.794Z,100789.59
2023-05-14T16:57:18.247Z,100796.19
2023-05-14T16:59:44.657Z,100792.44
2023-05-14T17:02:10.997Z,100800.78
2023-05-14T17:04:40.861Z,100790.47
2023-05-14T17:07:07.276Z,100799.94
2023-05-14T17:12:00.051Z,100790.44
2023-05-14T17:14:26.535Z,100783.59
2023-05-14T17:16:52.854Z,100788.41
2023-05-14T17:19:19.185Z,100798.59
2023-05-14T17:21:45.552Z,100786.81
2023-05-14T17:24:11.949Z,100791.38
2023-05-14T17:26:38.317Z,100795.47
2023-05-14T17:29:04.648Z,100784.97
2023-05-14T17:31:31.243Z,100788.75
2023-05-14T17:33:57.685Z,100801.81
2023-05-14T17:36:24.200Z,100798.06
2023-05-14T17:38:50.629Z,100800.78
2023-05-14T17:41:16.960Z,100792.25
2023-05-14T17:43:43.291Z,100808.41
2023-05-14T17:46:09.837Z,100796.06
2023-05-14T17:48:36.257Z,100811.41
2023-05-14T17:51:02.600Z,100806.88
2023-05-14T17:53:29.032Z,100794.88
2023-05-14T17:55:55.470Z,100812.06
2023-05-14T17:58:21.828Z,100809.69
2023-05-14T18:00:48.727Z,100810.59
2023-05-14T18:03:15.499Z,100796.78
2023-05-14T18:05:42.128Z,100813.47
2023-05-14T18:08:10.009Z,100813.19
2023-05-14T18:10:36.386Z,100813.03
2023-05-14T18:13:02.731Z,100801.19
2023-05-14T18:15:31.417Z,100808.94
2023-05-14T18:17:57.831Z,100805.88
2023-05-14T18:20:24.202Z,100803.19
2023-05-14T18:22:51.340Z,100811.72
2023-05-14T18:25:18.253Z,100805.66
2023-05-14T18:27:45.223Z,100808.81
2023-05-14T18:30:12.233Z,100818.56
2023-05-14T18:32:38.816Z,100809.59
2023-05-14T18:35:07.758Z,100816.78
2023-05-14T18:37:34.970Z,100805.59
2023-05-14T18:40:01.386Z,100809.59
2023-05-14T18:42:27.864Z,100808.16
2023-05-14T18:44:54.220Z,100811.16
2023-05-14T18:47:20.591Z,100823.09
2023-05-14T18:49:47.158Z,100811.38
2023-05-14T18:52:13.570Z,100822.16
2023-05-14T18:54:39.966Z,100810.84
2023-05-14T18:57:06.347Z,100811.09
2023-05-14T18:59:32.676Z,100815.06
2023-05-14T19:01:59.359Z,100819.06
2023-05-14T19:04:26.705Z,100816.06
2023-05-14T19:06:53.066Z,100821.19
2023-05-14T19:09:21.077Z,100814.56
2023-05-14T19:11:47.529Z,100818.81
2023-05-14T19:14:14.228Z,100812.84
2023-05-14T19:16:40.608Z,100815.25
2023-05-14T19:19:07.081Z,100819.63
2023-05-14T19:21:33.477Z,100817.06
2023-05-14T19:24:00.347Z,100818.31
2023-05-14T19:26:26.806Z,100819.66
2023-05-14T19:28:58.405Z,100821.03
2023-05-14T19:31:24.890Z,100817.31
2023-05-14T19:33:53.204Z,100821.25
2023-05-14T19:36:19.601Z,100828.88
2023-05-14T19:38:46.267Z,100819.88
2023-05-14T19:41:12.628Z,100821.84
2023-05-14T19:43:38.989Z,100825.34
2023-05-14T19:46:06.415Z,100826.13
2023-05-14T19:48:33.571Z,100830.00
2023-05-14T19:51:00.056Z,100828.31
2023-05-14T19:53:29.721Z,100831.31
2023-05-14T19:55:56.093Z,100826.59
2023-05-14T19:58:22.437Z,100831.09
2023-05-14T20:00:51.830Z,100826.84
2023-05-14T20:03:18.634Z,100822.72
2023-05-14T20:05:49.004Z,100832.66
2023-05-14T20:08:17.208Z,100833.22
2023-05-14T20:10:44.553Z,100836.28
2023-05-14T20:13:10.967Z,100833.59
2023-05-14T20:15:37.404Z,100832.81
2023-05-14T20:18:03.812Z,100834.94
2023-05-14T20:20:32.880Z,100831.78
2023-05-14T20:22:59.850Z,100822.84
2023-05-14T20:25:28.329Z,100829.00
2023-05-14T20:27:55.270Z,100821.28
2023-05-14T20:30:21.672Z,100825.63
2023-05-14T20:32:48.102Z,100822.94
2023-05-14T20:35:14.507Z,100829.22
2023-05-14T20:37:41.277Z,100824.56
2023-05-14T20:40:10.332Z,100825.78
2023-05-14T20:42:36.987Z,100825.72
2023-05-14T20:45:03.826Z,100829.34
2023-05-14T20:47:31.927Z,100821.34
2023-05-14T20:49:58.609Z,100826.97
2023-05-14T20:52:24.977Z,100822.59
2023-05-14T20:54:51.346Z,100820.81
2023-05-14T20:57:17.746Z,100821.69
2023-05-14T20:59:44.153Z,100819.25
2023-05-14T21:02:10.827Z,100817.28
2023-05-14T21:04:37.319Z,100816.66
2023-05-14T21:07:03.857Z,100818.94
2023-05-14T21:09:30.231Z,100817.28
2023-05-14T21:11:56.578Z,100815.00
2023-05-14T21:14:23.014Z,100820.72
2023-05-14T21:16:49.476Z,100815.94
2023-05-14T21:19:15.982Z,100819.78
2023-05-14T21:21:42.528Z,100817.72
2023-05-14T21:24:09.166Z,100820.25
2023-05-14T21:26:36.823Z,100814.34
2023-05-14T21:29:03.446Z,100810.84
2023-05-14T21:31:29.821Z,100811.75
2023-05-14T21:33:56.264Z,100801.69
2023-05-14T21:36:22.594Z,100816.72
2023-05-14T21:38:48.990Z,100801.59
2023-05-14T21:41:15.518Z,100811.88
2023-05-14T21:43:43.810Z,100816.53
2023-05-14T21:46:10.272Z,100814.47
2023-05-14T21:48:37.167Z,100800.88
2023-05-14T21:51:04.064Z,100807.31
2023-05-14T21:53:30.599Z,100800.03
2023-05-14T21:55:56.944Z,100801.63
2023-05-14T21:58:24.629Z,100801.47
2023-05-14T22:00:51.620Z,100814.13
2023-05-14T22:03:21.466Z,100819.88
2023-05-14T22:05:49.175Z,100811.41
2023-05-14T22:08:17.507Z,100821.47
2023-05-14T22:10:44.194Z,100815.38
2023-05-14T22:13:11.558Z,100803.72
2023-05-14T22:15:37.988Z,100809.78
2023-05-14T22:18:04.837Z,100805.47
2023-05-14T22:20:31.258Z,100797.22
2023-05-14T22:22:57.646Z,100805.25
2023-05-14T22:25:24.257Z,100803.53
2023-05-14T22:27:51.247Z,100795.41
2023-05-14T22:30:17.806Z,100801.50
2023-05-14T22:32:44.424Z,100795.06
2023-05-14T22:35:11.607Z,100796.16
2023-05-14T22:37:37.986Z,100796.28
2023-05-14T22:40:05.679Z,100802.56
2023-05-14T22:42:32.110Z,100797.97
2023-05-14T22:44:58.636Z,100799.28
2023-05-14T22:47:25.853Z,100814.56
2023-05-14T22:49:52.585Z,100799.63
2023-05-14T22:52:19.196Z,100788.06
2023-05-14T22:54:45.759Z,100788.06
2023-05-14T22:57:12.482Z,100791.41
2023-05-14T22:59:39.780Z,100787.97
2023-05-14T23:02:06.603Z,100777.66
2023-05-14T23:04:33.439Z,100780.59
2023-05-14T23:07:00.556Z,100776.66
2023-05-14T23:09:27.096Z,100768.88
2023-05-14T23:11:53.761Z,100776.00
2023-05-14T23:14:20.416Z,100779.25
2023-05-14T23:16:46.816Z,100776.56
2023-05-14T23:19:13.522Z,100768.41
2023-05-14T23:21:40.492Z,100765.72
2023-05-14T23:24:07.922Z,100763.09
2023-05-14T23:26:34.541Z,100765.03
2023-05-14T23:29:01.037Z,100765.09
2023-05-14T23:31:27.406Z,100763.97
2023-05-14T23:33:54.213Z,100767.75
2023-05-14T23:36:20.722Z,100765.38
2023-05-14T23:38:47.209Z,100760.72
2023-05-14T23:41:14.233Z,100763.75
2023-05-14T23:43:43.603Z,100760.22
2023-05-14T23:46:10.437Z,100757.91
2023-05-14T23:48:37.100Z,100758.06
2023-05-14T23:51:03.576Z,100757.06
2023-05-14T23:53:33.452Z,100758.88
2023-05-14T23:55:59.800Z,100746.63
2023-05-14T23:58:26.325Z,100748.50
